Time;durP1;ratioP1;P1;durP2;ratioP2;P2;SDS_P1;SDS_P2;PMS_P1;PMS_P2;Temp;Humidity;BMP_temperature;BMP_pressure;BME280_temperature;BME280_humidity;BME280_pressure;Samples;Min_cycle;Max_cycle;Signal;HPM_P1;HPM_P2
2022/09/27 00:02:09;;;;;;;12.98;2.63;;;;;;;;;;5052678;28;20501;-68
2022/09/27 00:04:35;;;;;;;13.10;2.30;;;;;;;;;;5064803;28;20468;-69
2022/09/27 00:07:01;;;;;;;17.60;2.38;;;;;;;;;;5066070;28;20044;-68
2022/09/27 00:09:27;;;;;;;16.70;2.92;;;;;;;;;;5075240;28;20096;-68
2022/09/27 00:11:53;;;;;;;19.23;2.88;;;;;;;;;;5072389;28;20118;-68
2022/09/27 00:14:19;;;;;;;13.43;2.50;;;;;;;;;;5071662;28;20076;-68
2022/09/27 00:16:45;;;;;;;11.65;2.40;;;;;;;;;;5073065;28;20119;-68
2022/09/27 00:19:16;;;;;;;13.68;2.95;;;;;;;;;;5058856;28;20413;-68
2022/09/27 00:21:43;;;;;;;13.57;2.50;;;;;;;;;;5066356;28;20063;-68
2022/09/27 00:24:12;;;;;;;10.73;2.30;;;;;;;;;;5072209;28;20070;-67
2022/09/27 00:26:39;;;;;;;12.70;2.50;;;;;;;;;;5074861;28;20610;-66
2022/09/27 00:29:05;;;;;;;15.88;2.75;;;;;;;;;;5078891;28;20078;-67
2022/09/27 00:31:31;;;;;;;14.73;2.65;;;;;;;;;;5066860;28;20132;-66
2022/09/27 00:33:57;;;;;;;;;;;;;;;;;;5065320;28;20148;-68
2022/09/27 00:36:24;;;;;;;13.45;2.30;;;;;;;;;;5068358;28;19939;-68
2022/09/27 00:38:52;;;;;;;13.90;2.80;;;;;;;;;;5081514;28;20052;-68
2022/09/27 00:41:23;;;;;;;9.68;2.28;;;;;;;;;;5068116;28;20056;-69
2022/09/27 00:43:54;;;;;;;13.18;2.50;;;;;;;;;;5081015;28;20047;-68
2022/09/27 00:46:29;;;;;;;13.65;3.20;;;;;;;;;;5070529;28;20090;-68
2022/09/27 00:49:01;;;;;;;14.75;3.55;;;;;;;;;;5050254;28;20059;-69
2022/09/27 00:51:27;;;;;;;15.43;3.60;;;;;;;;;;5084664;28;20044;-69
2022/09/27 00:53:55;;;;;;;20.23;4.65;;;;;;;;;;5073573;28;20124;-69
2022/09/27 00:56:23;;;;;;;14.82;4.47;;;;;;;;;;5079752;28;20122;-69
2022/09/27 00:58:51;;;;;;;19.27;5.20;;;;;;;;;;5070485;28;20099;-69
2022/09/27 01:01:17;;;;;;;14.70;4.22;;;;;;;;;;5075709;28;20054;-69
2022/09/27 01:03:56;;;;;;;13.32;3.60;;;;;;;;;;5073576;28;20107;-69
2022/09/27 01:06:23;;;;;;;15.80;4.20;;;;;;;;;;5070862;28;20563;-70
2022/09/27 01:08:49;;;;;;;20.70;5.40;;;;;;;;;;5061967;28;20139;-70
2022/09/27 01:11:33;;;;;;;18.75;6.38;;;;;;;;;;5065573;28;20044;-67
2022/09/27 01:14:08;;;;;;;17.77;5.75;;;;;;;;;;5071042;28;20052;-69
2022/09/27 01:16:47;;;;;;;17.88;8.10;;;;;;;;;;5071660;28;20066;-69
2022/09/27 01:19:13;;;;;;;16.95;5.97;;;;;;;;;;5070866;28;20138;-69
2022/09/27 01:21:52;;;;;;;13.00;4.00;;;;;;;;;;5066969;28;20140;-66
2022/09/27 01:24:36;;;;;;;16.05;3.92;;;;;;;;;;5066152;28;20048;-68
2022/09/27 01:27:08;;;;;;;12.63;3.25;;;;;;;;;;5067894;28;20135;-68
2022/09/27 01:29:53;;;;;;;11.77;2.90;;;;;;;;;;5077234;28;20044;-68
2022/09/27 01:32:37;;;;;;;11.63;2.60;;;;;;;;;;5067221;28;20044;-69
2022/09/27 01:35:04;;;;;;;11.75;2.47;;;;;;;;;;5068545;28;20048;-69
2022/09/27 01:37:37;;;;;;;8.82;2.42;;;;;;;;;;5064393;28;20342;-71
2022/09/27 01:40:09;;;;;;;12.77;2.50;;;;;;;;;;5084149;28;20143;-68
2022/09/27 01:42:55;;;;;;;10.75;3.00;;;;;;;;;;5073183;28;20045;-68
2022/09/27 01:45:24;;;;;;;12.18;2.70;;;;;;;;;;5071566;28;20151;-66
2022/09/27 01:47:56;;;;;;;11.35;2.50;;;;;;;;;;5085979;28;20055;-66
2022/09/27 01:50:26;;;;;;;11.52;2.30;;;;;;;;;;5065874;28;20186;-68
2022/09/27 01:53:01;;;;;;;8.90;2.00;;;;;;;;;;5070779;28;20127;-67
2022/09/27 01:55:31;;;;;;;13.20;2.22;;;;;;;;;;5070278;28;20041;-67
2022/09/27 01:58:06;;;;;;;7.60;2.10;;;;;;;;;;5074730;28;20091;-68
2022/09/27 02:00:33;;;;;;;8.32;1.88;;;;;;;;;;5085321;28;20051;-67
2022/09/27 02:03:04;;;;;;;10.65;1.90;;;;;;;;;;5083773;28;20120;-68
2022/09/27 02:05:37;;;;;;;6.47;1.80;;;;;;;;;;5068597;28;20482;-67
2022/09/27 02:08:07;;;;;;;12.35;2.00;;;;;;;;;;5070546;28;20048;-69
2022/09/27 02:10:35;;;;;;;9.45;2.00;;;;;;;;;;5071654;28;20043;-68
2022/09/27 02:13:10;;;;;;;11.68;2.22;;;;;;;;;;5069076;28;20055;-70
2022/09/27 02:15:45;;;;;;;12.80;2.60;;;;;;;;;;5071673;28;20079;-70
2022/09/27 02:18:16;;;;;;;16.83;2.60;;;;;;;;;;5079706;28;20144;-70
2022/09/27 02:20:45;;;;;;;14.98;2.78;;;;;;;;;;5077267;28;20052;-66
2022/09/27 02:23:22;;;;;;;12.90;2.50;;;;;;;;;;5086053;28;20055;-70
2022/09/27 02:25:48;;;;;;;6.57;1.70;;;;;;;;;;5060943;28;20059;-65
2022/09/27 02:28:23;;;;;;;8.32;1.67;;;;;;;;;;5075733;28;20053;-68
2022/09/27 02:30:49;;;;;;;6.05;1.60;;;;;;;;;;5056241;28;20234;-65
2022/09/27 02:33:15;;;;;;;11.50;1.92;;;;;;;;;;5082843;28;20040;-69
2022/09/27 02:35:41;;;;;;;6.35;1.80;;;;;;;;;;5076792;28;20205;-68
2022/09/27 02:38:07;;;;;;;8.27;1.80;;;;;;;;;;5068983;28;20056;-69
2022/09/27 02:40:34;;;;;;;7.50;1.88;;;;;;;;;;5070362;28;20051;-69
2022/09/27 02:43:02;;;;;;;8.07;1.75;;;;;;;;;;5072407;28;20039;-69
2022/09/27 02:45:31;;;;;;;7.15;1.90;;;;;;;;;;5079124;28;20139;-71
2022/09/27 02:48:06;;;;;;;13.50;3.47;;;;;;;;;;5067569;28;20076;-70
2022/09/27 02:50:44;;;;;;;14.93;5.22;;;;;;;;;;5066333;28;20048;-70
2022/09/27 02:53:19;;;;;;;19.13;6.88;;;;;;;;;;5072739;28;20495;-70
2022/09/27 02:55:51;;;;;;;13.35;4.10;;;;;;;;;;5063506;28;20128;-69
2022/09/27 02:58:36;;;;;;;16.77;4.78;;;;;;;;;;5064311;28;20052;-71
2022/09/27 03:01:09;;;;;;;19.33;5.53;;;;;;;;;;5064150;28;20098;-67
2022/09/27 03:03:43;;;;;;;17.15;4.95;;;;;;;;;;5068471;28;20088;-67
2022/09/27 03:06:14;;;;;;;20.25;5.20;;;;;;;;;;5069654;28;20103;-68
2022/09/27 03:08:40;;;;;;;11.15;3.25;;;;;;;;;;5081031;28;20139;-69
2022/09/27 03:11:07;;;;;;;14.35;2.72;;;;;;;;;;5070913;28;20050;-68
2022/09/27 03:13:35;;;;;;;16.90;2.80;;;;;;;;;;5067751;28;20053;-70
2022/09/27 03:16:01;;;;;;;9.88;2.53;;;;;;;;;;5081713;28;20044;-68
2022/09/27 03:18:27;;;;;;;13.25;1.80;;;;;;;;;;5070262;28;20150;-72
2022/09/27 03:20:53;;;;;;;10.35;2.25;;;;;;;;;;5068469;28;20421;-69
2022/09/27 03:23:20;;;;;;;11.32;2.40;;;;;;;;;;5065817;28;20048;-68
2022/09/27 03:25:46;;;;;;;9.00;2.10;;;;;;;;;;5059600;28;20108;-68
2022/09/27 03:28:12;;;;;;;12.68;2.28;;;;;;;;;;5065678;28;20078;-69
2022/09/27 03:30:38;;;;;;;;;;;;;;;;;;5069561;28;20044;-69
2022/09/27 03:33:04;;;;;;;12.95;2.15;;;;;;;;;;5068244;28;19939;-68
2022/09/27 03:35:30;;;;;;;13.65;2.22;;;;;;;;;;5070369;28;20052;-69
2022/09/27 03:37:56;;;;;;;13.15;1.90;;;;;;;;;;5082520;28;20095;-69
2022/09/27 03:40:23;;;;;;;9.07;1.90;;;;;;;;;;5069202;28;20440;-69
2022/09/27 03:42:49;;;;;;;8.73;1.80;;;;;;;;;;5069727;28;20045;-69
2022/09/27 03:45:16;;;;;;;11.88;2.20;;;;;;;;;;5069903;28;20166;-69
2022/09/27 03:47:42;;;;;;;8.15;2.00;;;;;;;;;;5081316;28;20048;-68
2022/09/27 03:50:09;;;;;;;6.22;1.70;;;;;;;;;;5068612;28;20048;-69
2022/09/27 03:52:35;;;;;;;12.73;2.60;;;;;;;;;;5065148;28;20048;-69
2022/09/27 03:55:01;;;;;;;11.60;2.88;;;;;;;;;;5076510;28;20104;-69
2022/09/27 03:57:29;;;;;;;15.00;3.28;;;;;;;;;;5068673;28;20051;-68
2022/09/27 03:59:55;;;;;;;11.52;3.38;;;;;;;;;;5074520;28;20205;-69
2022/09/27 04:02:21;;;;;;;10.75;2.30;;;;;;;;;;5070278;28;20806;-67
2022/09/27 04:04:47;;;;;;;11.90;2.40;;;;;;;;;;5075009;28;20119;-69
2022/09/27 04:07:13;;;;;;;14.25;2.22;;;;;;;;;;5085304;28;20097;-72
2022/09/27 04:09:41;;;;;;;12.00;2.10;;;;;;;;;;5071614;28;20041;-67
2022/09/27 04:12:07;;;;;;;13.20;2.30;;;;;;;;;;5087323;28;20109;-67
2022/09/27 04:14:33;;;;;;;;;;;;;;;;;;5084545;28;20044;-67
2022/09/27 04:16:59;;;;;;;11.77;2.30;;;;;;;;;;5068992;28;19926;-69
2022/09/27 04:19:25;;;;;;;13.38;2.60;;;;;;;;;;5067657;28;20453;-68
2022/09/27 04:21:51;;;;;;;11.68;2.60;;;;;;;;;;5067579;28;20430;-69
2022/09/27 04:24:17;;;;;;;13.07;2.80;;;;;;;;;;5069104;28;20124;-69
2022/09/27 04:26:43;;;;;;;13.43;2.75;;;;;;;;;;5077329;28;20044;-69
2022/09/27 04:29:11;;;;;;;13.63;2.30;;;;;;;;;;5083545;28;20067;-68
2022/09/27 04:31:37;;;;;;;13.07;2.38;;;;;;;;;;5072006;28;20052;-70
2022/09/27 04:34:04;;;;;;;12.88;2.70;;;;;;;;;;5077470;28;20396;-69
2022/09/27 04:36:30;;;;;;;11.80;2.35;;;;;;;;;;5067801;28;20049;-69
2022/09/27 04:38:56;;;;;;;;;;;;;;;;;;5068428;28;20053;-67
2022/09/27 04:41:24;;;;;;;9.98;2.45;;;;;;;;;;5074561;28;19920;-67
2022/09/27 04:43:53;;;;;;;14.27;2.50;;;;;;;;;;5081939;28;20128;-68
2022/09/27 04:46:20;;;;;;;15.93;2.90;;;;;;;;;;5077273;28;20429;-68
2022/09/27 04:48:46;;;;;;;11.45;2.45;;;;;;;;;;5067586;28;20432;-68
2022/09/27 04:51:15;;;;;;;10.00;2.35;;;;;;;;;;5067502;28;20048;-68
2022/09/27 04:53:41;;;;;;;14.05;2.83;;;;;;;;;;5077996;28;20213;-68
2022/09/27 04:56:07;;;;;;;14.82;2.45;;;;;;;;;;5069407;28;20032;-67
2022/09/27 04:58:34;;;;;;;13.13;2.88;;;;;;;;;;5085608;28;20510;-69
2022/09/27 05:01:02;;;;;;;16.88;3.05;;;;;;;;;;5074227;28;20642;-70
2022/09/27 05:03:28;;;;;;;9.65;2.28;;;;;;;;;;5074853;28;20044;-70
2022/09/27 05:05:54;;;;;;;8.95;2.47;;;;;;;;;;5065953;28;20098;-70
2022/09/27 05:08:20;;;;;;;9.82;2.53;;;;;;;;;;5079325;28;20477;-70
2022/09/27 05:10:48;;;;;;;11.35;2.75;;;;;;;;;;5070360;28;20054;-74
2022/09/27 05:13:14;;;;;;;11.95;2.67;;;;;;;;;;5065886;28;20124;-70
2022/09/27 05:15:41;;;;;;;11.15;2.28;;;;;;;;;;5065784;28;20052;-71
2022/09/27 05:18:08;;;;;;;16.83;2.97;;;;;;;;;;5067054;28;20041;-70
2022/09/27 05:20:35;;;;;;;9.75;2.42;;;;;;;;;;5067100;28;20161;-69
2022/09/27 05:23:03;;;;;;;15.02;2.50;;;;;;;;;;5067098;28;20105;-69
2022/09/27 05:25:30;;;;;;;13.63;2.53;;;;;;;;;;5074812;28;20040;-68
2022/09/27 05:27:57;;;;;;;10.55;2.10;;;;;;;;;;5072201;28;20457;-67
2022/09/27 05:30:23;;;;;;;12.40;2.47;;;;;;;;;;5076968;28;20128;-66
2022/09/27 05:32:49;;;;;;;;;;;;;;;;;;5072190;28;20453;-67
2022/09/27 05:35:18;;;;;;;14.52;2.70;;;;;;;;;;5072652;28;19978;-66
2022/09/27 05:37:44;;;;;;;11.98;2.53;;;;;;;;;;5072196;28;20473;-67
2022/09/27 05:40:10;;;;;;;10.65;2.30;;;;;;;;;;5053388;28;20392;-68
2022/09/27 05:42:38;;;;;;;11.52;2.40;;;;;;;;;;5071115;28;20060;-68
2022/09/27 05:45:05;;;;;;;17.45;2.72;;;;;;;;;;5079842;28;20059;-68
2022/09/27 05:47:32;;;;;;;11.80;2.60;;;;;;;;;;5071605;28;20071;-67
2022/09/27 05:49:58;;;;;;;10.05;2.63;;;;;;;;;;5072164;28;20060;-68
2022/09/27 05:52:25;;;;;;;;;;;;;;;;;;5088185;28;20074;-68
2022/09/27 05:54:51;;;;;;;14.18;2.75;;;;;;;;;;5053158;28;19998;-66
2022/09/27 05:57:17;;;;;;;;;;;;;;;;;;5071311;28;20044;-66
2022/09/27 05:59:43;;;;;;;15.50;2.65;;;;;;;;;;5071612;28;19921;-68
2022/09/27 06:02:12;;;;;;;15.77;2.75;;;;;;;;;;5069926;28;20052;-69
2022/09/27 06:04:39;;;;;;;17.13;3.75;;;;;;;;;;5052154;28;20053;-68
2022/09/27 06:07:08;;;;;;;17.55;3.08;;;;;;;;;;5071065;28;20068;-69
2022/09/27 06:09:34;;;;;;;14.00;3.08;;;;;;;;;;5070817;28;20063;-68
2022/09/27 06:12:00;;;;;;;13.38;3.22;;;;;;;;;;5076956;28;20097;-68
2022/09/27 06:14:27;;;;;;;11.35;2.83;;;;;;;;;;5052695;28;20055;-68
2022/09/27 06:16:54;;;;;;;15.35;2.85;;;;;;;;;;5052626;28;20055;-69
2022/09/27 06:19:20;;;;;;;13.93;2.60;;;;;;;;;;5069905;28;20157;-66
2022/09/27 06:21:49;;;;;;;15.57;2.85;;;;;;;;;;5074648;28;20040;-69
2022/09/27 06:24:15;;;;;;;15.25;2.80;;;;;;;;;;5070697;28;20439;-69
2022/09/27 06:26:42;;;;;;;15.65;2.85;;;;;;;;;;5074046;28;20051;-68
2022/09/27 06:29:08;;;;;;;17.00;3.08;;;;;;;;;;5077396;28;20173;-69
2022/09/27 06:31:34;;;;;;;16.67;2.88;;;;;;;;;;5069652;28;20463;-68
2022/09/27 06:34:00;;;;;;;17.27;3.78;;;;;;;;;;5069792;28;20390;-70
2022/09/27 06:36:27;;;;;;;16.10;3.35;;;;;;;;;;5072209;28;20045;-69
2022/09/27 06:38:53;;;;;;;21.80;4.35;;;;;;;;;;5051046;28;20071;-71
2022/09/27 06:41:20;;;;;;;17.45;3.70;;;;;;;;;;5071183;28;20068;-70
2022/09/27 06:43:48;;;;;;;16.45;3.75;;;;;;;;;;5079859;28;20047;-71
2022/09/27 06:46:17;;;;;;;15.35;3.35;;;;;;;;;;5082089;28;20052;-71
2022/09/27 06:48:43;;;;;;;17.55;4.28;;;;;;;;;;5072573;28;20107;-71
2022/09/27 06:51:12;;;;;;;25.10;7.22;;;;;;;;;;5087090;28;20106;-71
2022/09/27 06:53:38;;;;;;;20.30;8.20;;;;;;;;;;5067791;28;20063;-71
2022/09/27 06:56:04;;;;;;;18.05;4.72;;;;;;;;;;5073636;28;20101;-72
2022/09/27 07:01:16;;;;;;;13.95;3.13;;;;;;;;;;5087134;28;20068;-73
2022/09/27 07:03:43;;;;;;;12.15;2.60;;;;;;;;;;5079542;28;20064;-72
2022/09/27 07:06:21;;;;;;;14.88;2.92;;;;;;;;;;5083223;28;20090;-70
2022/09/27 07:08:51;;;;;;;16.85;3.70;;;;;;;;;;5087225;28;20116;-72
2022/09/27 07:11:17;;;;;;;13.13;3.50;;;;;;;;;;5085863;28;20132;-72
2022/09/27 07:13:43;;;;;;;16.67;4.60;;;;;;;;;;5080340;28;20051;-73
2022/09/27 07:16:13;;;;;;;14.80;4.53;;;;;;;;;;5065611;28;20044;-73
2022/09/27 07:18:40;;;;;;;19.30;6.72;;;;;;;;;;5074397;28;20064;-74
2022/09/27 07:21:07;;;;;;;21.13;8.38;;;;;;;;;;5078761;28;20044;-73
2022/09/27 07:23:34;;;;;;;18.63;6.13;;;;;;;;;;5081745;28;20060;-73
2022/09/27 07:26:03;;;;;;;;;;;;;;;;;;5081063;28;20123;-74
2022/09/27 07:28:29;;;;;;;19.02;5.20;;;;;;;;;;5089365;28;19957;-68
2022/09/27 07:30:55;;;;;;;13.60;3.33;;;;;;;;;;5075184;28;20108;-73
2022/09/27 07:33:21;;;;;;;;;;;;;;;;;;5066565;28;20416;-71
2022/09/27 07:35:47;;;;;;;14.80;3.75;;;;;;;;;;5067351;28;19924;-70
2022/09/27 07:38:14;;;;;;;13.80;3.50;;;;;;;;;;5068712;28;20410;-70
2022/09/27 07:40:40;;;;;;;14.48;4.43;;;;;;;;;;5079796;28;20047;-70
2022/09/27 07:43:08;;;;;;;20.10;5.80;;;;;;;;;;5086973;28;20130;-70
2022/09/27 07:45:34;;;;;;;16.08;5.40;;;;;;;;;;5088479;28;20165;-70
2022/09/27 07:48:00;;;;;;;;;;;;;;;;;;5089771;28;20105;-70
2022/09/27 07:50:27;;;;;;;8.60;2.55;;;;;;;;;;5081019;28;20027;-68
2022/09/27 07:52:54;;;;;;;11.95;2.92;;;;;;;;;;5089034;28;20121;-69
2022/09/27 07:55:20;;;;;;;7.90;2.20;;;;;;;;;;5089481;28;20129;-69
2022/09/27 07:57:46;;;;;;;6.13;2.00;;;;;;;;;;5070894;28;20131;-69
2022/09/27 08:00:17;;;;;;;10.95;2.67;;;;;;;;;;5086333;28;20048;-68
2022/09/27 08:02:43;;;;;;;12.65;3.00;;;;;;;;;;5076753;28;20132;-68
2022/09/27 08:05:09;;;;;;;;;;;;;;;;;;5094653;28;20465;-68
2022/09/27 08:07:36;;;;;;;11.73;4.25;;;;;;;;;;5085948;28;19920;-66
2022/09/27 08:10:02;;;;;;;13.48;4.30;;;;;;;;;;5095516;28;20432;-69
2022/09/27 08:12:28;;;;;;;16.75;4.47;;;;;;;;;;5069197;28;20120;-68
2022/09/27 08:14:57;;;;;;;13.15;5.50;;;;;;;;;;5069429;28;20064;-68
2022/09/27 08:17:23;;;;;;;16.20;7.18;;;;;;;;;;5075716;28;20051;-69
2022/09/27 08:19:49;;;;;;;;;;;;;;;;;;5084615;28;20055;-69
2022/09/27 08:22:16;;;;;;;11.77;4.30;;;;;;;;;;5077540;28;19965;-69
2022/09/27 08:24:42;;;;;;;10.82;3.20;;;;;;;;;;5080641;28;20551;-68
2022/09/27 08:27:08;;;;;;;11.43;3.35;;;;;;;;;;5069093;28;20472;-70
2022/09/27 08:29:34;;;;;;;13.15;4.25;;;;;;;;;;5081510;28;20467;-70
2022/09/27 08:32:00;;;;;;;14.45;3.75;;;;;;;;;;5082686;28;20113;-70
2022/09/27 08:34:28;;;;;;;9.98;3.13;;;;;;;;;;5064713;28;20070;-70
2022/09/27 08:36:54;;;;;;;15.27;4.28;;;;;;;;;;5061634;28;20352;-71
2022/09/27 08:39:20;;;;;;;;;;;;;;;;;;5096134;28;20134;-71
2022/09/27 08:41:55;;;;;;;12.82;2.58;;;;;;;;;;5079765;28;20065;-69
2022/09/27 08:44:30;;;;;;;8.68;2.20;;;;;;;;;;5090220;28;20074;-70
2022/09/27 08:47:06;;;;;;;12.20;2.55;;;;;;;;;;5097272;28;20154;-68
2022/09/27 08:49:40;;;;;;;7.97;2.00;;;;;;;;;;5062896;28;20115;-71
2022/09/27 08:52:09;;;;;;;9.55;2.38;;;;;;;;;;5087240;28;20073;-71
2022/09/27 08:54:35;;;;;;;8.90;2.20;;;;;;;;;;5088246;28;20145;-72
2022/09/27 08:57:03;;;;;;;11.60;2.17;;;;;;;;;;5085457;28;20053;-69
2022/09/27 08:59:33;;;;;;;10.50;2.53;;;;;;;;;;5085527;28;20044;-69
2022/09/27 09:01:59;;;;;;;9.93;2.40;;;;;;;;;;5069385;28;20075;-70
2022/09/27 09:04:31;;;;;;;9.88;2.47;;;;;;;;;;5067734;28;20191;-70
2022/09/27 09:07:06;;;;;;;10.32;2.40;;;;;;;;;;5087700;28;20087;-70
2022/09/27 09:09:32;;;;;;;8.95;2.22;;;;;;;;;;5085458;28;20150;-70
2022/09/27 09:15:06;;;;;;;11.10;2.45;;;;;;;;;;5070384;28;20193;-68
2022/09/27 09:17:52;;;;;;;10.95;2.47;;;;;;;;;;5067726;28;20214;-69
2022/09/27 09:20:26;;;;;;;10.98;2.90;;;;;;;;;;5068604;28;20136;-68
2022/09/27 09:22:55;;;;;;;12.48;3.03;;;;;;;;;;5068057;28;20045;-69
2022/09/27 09:25:21;;;;;;;10.90;2.92;;;;;;;;;;5067675;28;20155;-69
2022/09/27 09:27:58;;;;;;;13.73;3.45;;;;;;;;;;5049389;28;20110;-68
2022/09/27 09:30:24;;;;;;;;;;;;;;;;;;5079302;28;20056;-71
2022/09/27 09:32:57;;;;;;;19.83;4.03;;;;;;;;;;5088008;28;20111;-71
2022/09/27 09:35:26;;;;;;;14.27;4.30;;;;;;;;;;5081446;28;20152;-71
2022/09/27 09:38:04;;;;;;;21.83;6.07;;;;;;;;;;5067754;28;20462;-70
2022/09/27 09:40:42;;;;;;;24.05;6.22;;;;;;;;;;5067833;28;20055;-69
2022/09/27 09:43:13;;;;;;;23.67;5.53;;;;;;;;;;5049640;28;20361;-68
2022/09/27 09:45:41;;;;;;;9.13;2.80;;;;;;;;;;5071235;28;20070;-70
2022/09/27 09:48:09;;;;;;;5.78;1.80;;;;;;;;;;5077350;28;20346;-69
2022/09/27 09:50:41;;;;;;;7.70;1.90;;;;;;;;;;5071445;28;20060;-69
2022/09/27 09:53:17;;;;;;;5.68;1.77;;;;;;;;;;5049769;28;20053;-69
2022/09/27 09:55:45;;;;;;;4.82;1.67;;;;;;;;;;5068152;28;20040;-69
2022/09/27 09:58:23;;;;;;;6.22;1.70;;;;;;;;;;5066531;28;20053;-68
2022/09/27 10:00:50;;;;;;;6.50;1.60;;;;;;;;;;5077151;28;20079;-69
2022/09/27 10:03:18;;;;;;;6.75;1.60;;;;;;;;;;5075150;28;20207;-69
2022/09/27 10:05:44;;;;;;;7.30;1.90;;;;;;;;;;5033368;28;20109;-69
2022/09/27 10:08:18;;;;;;;4.97;1.60;;;;;;;;;;5067694;28;20116;-69
2022/09/27 10:10:44;;;;;;;8.93;1.90;;;;;;;;;;5067660;28;20047;-70
2022/09/27 10:13:10;;;;;;;;;;;;;;;;;;5071032;28;20112;-69
2022/09/27 10:15:36;;;;;;;5.38;1.60;;;;;;;;;;5071222;28;19931;-70
2022/09/27 10:18:03;;;;;;;3.97;1.60;;;;;;;;;;5061675;28;20054;-69
2022/09/27 10:21:01;;;;;;;9.07;1.90;;;;;;;;;;5070643;28;20055;-69
2022/09/27 10:23:28;;;;;;;7.35;1.67;;;;;;;;;;5020220;28;20485;-70
2022/09/27 10:26:02;;;;;;;7.22;2.08;;;;;;;;;;5068926;28;20481;-70
2022/09/27 10:28:32;;;;;;;10.77;3.83;;;;;;;;;;5070415;28;20047;-72
2022/09/27 10:31:00;;;;;;;11.30;3.95;;;;;;;;;;5071020;28;20049;-71
2022/09/27 10:33:27;;;;;;;11.90;5.13;;;;;;;;;;5057986;28;20115;-71
2022/09/27 10:35:53;;;;;;;13.73;4.72;;;;;;;;;;5071006;28;20044;-71
2022/09/27 10:38:20;;;;;;;;;;;;;;;;;;5071230;28;20148;-72
2022/09/27 10:40:47;;;;;;;13.13;3.93;;;;;;;;;;5071074;28;19920;-72
2022/09/27 10:43:29;;;;;;;9.98;3.55;;;;;;;;;;5057265;28;20064;-71
2022/09/27 10:46:14;;;;;;;8.60;2.30;;;;;;;;;;5090985;28;20172;-71
2022/09/27 10:48:41;;;;;;;6.75;2.20;;;;;;;;;;5090588;28;20428;-71
2022/09/27 10:51:19;;;;;;;7.65;2.30;;;;;;;;;;5090391;28;20052;-69
2022/09/27 10:53:46;;;;;;;7.60;2.55;;;;;;;;;;5081709;28;20385;-70
2022/09/27 10:56:38;;;;;;;7.22;3.00;;;;;;;;;;5070156;28;20096;-69
2022/09/27 10:59:05;;;;;;;10.55;3.60;;;;;;;;;;5066422;28;20524;-68
2022/09/27 11:01:42;;;;;;;11.55;5.32;;;;;;;;;;5071535;28;20058;-68
2022/09/27 11:04:08;;;;;;;;;;;;;;;;;;5089845;28;20441;-68
2022/09/27 11:06:37;;;;;;;10.85;3.30;;;;;;;;;;5090958;28;19973;-68
2022/09/27 11:09:15;;;;;;;9.30;3.20;;;;;;;;;;5089736;28;20052;-67
2022/09/27 11:11:44;;;;;;;9.68;3.10;;;;;;;;;;5069779;28;20173;-68
2022/09/27 11:14:18;;;;;;;12.48;4.95;;;;;;;;;;5069512;28;20127;-67
2022/09/27 11:16:50;;;;;;;12.52;5.18;;;;;;;;;;5069632;28;20052;-68
2022/09/27 11:19:22;;;;;;;10.65;3.75;;;;;;;;;;5069411;28;20099;-68
2022/09/27 11:21:54;;;;;;;10.93;2.60;;;;;;;;;;5069106;28;20464;-68
2022/09/27 11:24:33;;;;;;;5.10;1.67;;;;;;;;;;5068018;28;20080;-68
2022/09/27 11:26:59;;;;;;;9.15;2.28;;;;;;;;;;5089361;28;20044;-68
2022/09/27 11:29:25;;;;;;;8.10;2.25;;;;;;;;;;5076760;28;20386;-68
2022/09/27 11:32:01;;;;;;;9.82;2.05;;;;;;;;;;5067998;28;20154;-69
2022/09/27 11:34:33;;;;;;;5.05;1.65;;;;;;;;;;5068901;28;20055;-69
2022/09/27 11:37:15;;;;;;;4.90;1.52;;;;;;;;;;5069054;28;20199;-70
2022/09/27 11:39:59;;;;;;;3.78;1.50;;;;;;;;;;5068860;28;20175;-70
2022/09/27 11:42:32;;;;;;;6.10;1.83;;;;;;;;;;5073573;28;20457;-69
2022/09/27 11:45:17;;;;;;;6.28;1.80;;;;;;;;;;5066964;28;20048;-71
2022/09/27 11:47:55;;;;;;;5.75;1.77;;;;;;;;;;5068711;28;20485;-70
2022/09/27 11:50:37;;;;;;;9.68;2.20;;;;;;;;;;5050371;28;20059;-71
2022/09/27 11:53:22;;;;;;;10.93;2.67;;;;;;;;;;5069384;28;20074;-72
2022/09/27 11:55:51;;;;;;;5.43;1.70;;;;;;;;;;5088855;28;20143;-76
2022/09/27 11:58:23;;;;;;;3.92;1.30;;;;;;;;;;5088700;28;20101;-72
2022/09/27 12:01:01;;;;;;;2.63;1.30;;;;;;;;;;5089117;28;20063;-72
2022/09/27 12:03:39;;;;;;;3.97;1.52;;;;;;;;;;5086813;28;20055;-72
2022/09/27 12:06:07;;;;;;;3.95;1.58;;;;;;;;;;5088844;28;20151;-71
2022/09/27 12:08:43;;;;;;;4.80;1.92;;;;;;;;;;5087710;28;20087;-74
2022/09/27 12:11:14;;;;;;;3.08;1.40;;;;;;;;;;5087804;28;20052;-72
2022/09/27 12:13:43;;;;;;;1.48;1.30;;;;;;;;;;5068793;28;20119;-73
2022/09/27 12:16:11;;;;;;;2.08;1.20;;;;;;;;;;5087827;28;20044;-72
2022/09/27 12:18:40;;;;;;;2.20;1.23;;;;;;;;;;5088372;28;20157;-74
2022/09/27 12:21:08;;;;;;;4.07;1.50;;;;;;;;;;5088185;28;20121;-74
2022/09/27 12:23:46;;;;;;;6.22;1.50;;;;;;;;;;5077551;28;20109;-74
2022/09/27 12:26:17;;;;;;;5.28;1.60;;;;;;;;;;5066497;28;20102;-73
2022/09/27 12:28:46;;;;;;;4.10;1.60;;;;;;;;;;5067225;28;20040;-74
2022/09/27 12:31:15;;;;;;;6.60;1.70;;;;;;;;;;5067337;28;20059;-73
2022/09/27 12:33:47;;;;;;;6.20;1.50;;;;;;;;;;5067451;28;20113;-74
2022/09/27 12:36:16;;;;;;;6.20;2.10;;;;;;;;;;5066763;28;20048;-72
2022/09/27 12:38:45;;;;;;;4.47;1.50;;;;;;;;;;5066839;28;20109;-73
2022/09/27 12:41:14;;;;;;;6.43;1.70;;;;;;;;;;5066869;28;20131;-71
2022/09/27 12:43:44;;;;;;;9.15;1.88;;;;;;;;;;5067595;28;20044;-73
2022/09/27 12:46:26;;;;;;;6.60;1.70;;;;;;;;;;5067263;28;20193;-72
2022/09/27 12:49:03;;;;;;;9.30;2.88;;;;;;;;;;5067236;28;20040;-73
2022/09/27 12:51:36;;;;;;;12.25;2.20;;;;;;;;;;5048807;28;20048;-72
2022/09/27 12:54:20;;;;;;;9.93;2.05;;;;;;;;;;5067129;28;20124;-73
2022/09/27 12:56:48;;;;;;;8.68;2.00;;;;;;;;;;5067152;28;20036;-73
2022/09/27 12:59:20;;;;;;;15.05;2.40;;;;;;;;;;5066616;28;20064;-71
2022/09/27 13:01:59;;;;;;;10.95;2.20;;;;;;;;;;5066865;28;20055;-73
2022/09/27 13:04:44;;;;;;;7.13;1.60;;;;;;;;;;5066642;28;20075;-75
2022/09/27 13:07:10;;;;;;;6.43;1.50;;;;;;;;;;5066726;28;20132;-74
2022/09/27 13:09:36;;;;;;;4.82;1.70;;;;;;;;;;5069183;28;20052;-75
2022/09/27 13:12:02;;;;;;;;;;;;;;;;;;5067484;28;20455;-76
2022/09/27 13:14:31;;;;;;;4.38;1.40;;;;;;;;;;5066481;28;20036;-74
2022/09/27 13:16:57;;;;;;;4.68;1.40;;;;;;;;;;5048661;28;20049;-76
2022/09/27 13:19:41;;;;;;;3.95;1.48;;;;;;;;;;5048463;28;20071;-74
2022/09/27 13:22:08;;;;;;;5.32;1.48;;;;;;;;;;5067061;28;20060;-70
2022/09/27 13:24:42;;;;;;;5.38;1.58;;;;;;;;;;5065992;28;20158;-76
2022/09/27 13:27:22;;;;;;;5.43;1.67;;;;;;;;;;5066835;28;20181;-73
2022/09/27 13:29:49;;;;;;;6.60;1.52;;;;;;;;;;5066985;28;20369;-69
2022/09/27 13:32:20;;;;;;;5.85;1.50;;;;;;;;;;5080621;28;20082;-65
2022/09/27 13:34:46;;;;;;;7.05;1.48;;;;;;;;;;5086885;28;20451;-75
2022/09/27 13:37:23;;;;;;;2.58;1.42;;;;;;;;;;5069042;28;20051;-63
2022/09/27 13:39:49;;;;;;;;;;;;;;;;;;5069295;28;20067;-69
2022/09/27 13:42:29;;;;;;;3.40;1.35;;;;;;;;;;5083577;28;19968;-72
2022/09/27 13:44:55;;;;;;;2.30;1.40;;;;;;;;;;5088205;28;20204;-71
2022/09/27 13:47:23;;;;;;;4.10;1.50;;;;;;;;;;5087860;28;20603;-71
2022/09/27 13:49:50;;;;;;;6.95;2.20;;;;;;;;;;5091073;28;20115;-71
2022/09/27 13:52:17;;;;;;;10.45;3.80;;;;;;;;;;5089049;28;20119;-71
2022/09/27 13:54:50;;;;;;;13.20;4.32;;;;;;;;;;5070361;28;20482;-71
2022/09/27 13:57:34;;;;;;;11.43;3.53;;;;;;;;;;5071345;28;20064;-70
2022/09/27 14:00:04;;;;;;;12.23;3.05;;;;;;;;;;5071474;28;20075;-70
2022/09/27 14:02:31;;;;;;;7.13;2.53;;;;;;;;;;5055655;28;20053;-70
2022/09/27 14:04:59;;;;;;;10.18;2.88;;;;;;;;;;5071241;28;20060;-69
2022/09/27 14:07:40;;;;;;;9.68;3.00;;;;;;;;;;5070506;28;20048;-70
2022/09/27 14:10:12;;;;;;;6.95;2.42;;;;;;;;;;5053061;28;20051;-70
2022/09/27 14:12:39;;;;;;;8.57;2.00;;;;;;;;;;5073117;28;20266;-70
2022/09/27 14:15:07;;;;;;;11.05;3.53;;;;;;;;;;5055946;28;20135;-68
2022/09/27 14:17:33;;;;;;;10.77;4.40;;;;;;;;;;5055155;28;20045;-68
2022/09/27 14:20:01;;;;;;;9.90;3.50;;;;;;;;;;5072315;28;20411;-66
2022/09/27 14:22:31;;;;;;;9.30;3.05;;;;;;;;;;5053267;28;20059;-67
2022/09/27 14:24:59;;;;;;;9.18;2.78;;;;;;;;;;5071694;28;20090;-67
2022/09/27 14:27:29;;;;;;;16.85;2.67;;;;;;;;;;5070972;28;20445;-66
2022/09/27 14:29:56;;;;;;;7.80;1.90;;;;;;;;;;5072126;28;20437;-66
2022/09/27 14:32:23;;;;;;;7.90;1.95;;;;;;;;;;5053733;28;20048;-65
2022/09/27 14:37:22;;;;;;;6.85;1.92;;;;;;;;;;5072105;28;20345;-66
2022/09/27 14:37:53;;;;;;;10.55;4.40;;;;;;;;;;5091284;28;20450;-67
2022/09/27 14:40:20;;;;;;;14.73;6.18;;;;;;;;;;5092180;28;20197;-67
2022/09/27 14:42:47;;;;;;;15.77;8.30;;;;;;;;;;5073827;28;20048;-66
2022/09/27 14:45:27;;;;;;;14.82;8.10;;;;;;;;;;5068804;28;20363;-67
2022/09/27 14:47:53;;;;;;;20.52;10.82;;;;;;;;;;5087974;28;20076;-67
2022/09/27 14:50:24;;;;;;;11.18;4.82;;;;;;;;;;5071978;28;20055;-68
2022/09/27 14:52:55;;;;;;;13.32;3.75;;;;;;;;;;5052788;28;20918;-67
2022/09/27 14:55:21;;;;;;;8.95;2.60;;;;;;;;;;5074590;28;20044;-67
2022/09/27 14:57:52;;;;;;;7.47;2.60;;;;;;;;;;5071301;28;20455;-68
2022/09/27 15:00:21;;;;;;;10.68;3.00;;;;;;;;;;5084536;28;20510;-67
2022/09/27 15:02:49;;;;;;;8.40;2.25;;;;;;;;;;5069508;28;20068;-67